createdAt,value
2019-02-14T00:01:24.185Z,75.93
2019-02-14T00:04:13.166Z,76.22
2019-02-14T00:06:59.910Z,76.99
2019-02-14T00:12:33.059Z,77.41
2019-02-14T00:15:00.761Z,77.95
2019-02-14T00:17:47.500Z,77.97
2019-02-14T00:20:34.133Z,77.86
2019-02-14T00:23:35.624Z,77.97
2019-02-14T00:25:53.299Z,77.97
2019-02-14T00:28:20.965Z,77.91
2019-02-14T00:31:07.642Z,77.63
2019-02-14T00:33:35.381Z,77.63
2019-02-14T00:36:03.147Z,78.04
2019-02-14T00:38:30.905Z,78.04
2019-02-14T00:40:58.608Z,77.98
2019-02-14T00:43:45.025Z,78.17
2019-02-14T00:46:31.761Z,78.29
2019-02-14T00:51:47.375Z,78.21
2019-02-14T00:54:15.015Z,78.21
2019-02-14T00:56:42.709Z,78.17
2019-02-14T00:59:10.581Z,77.86
2019-02-14T01:01:56.959Z,77.87
2019-02-14T01:04:43.389Z,78.17
2019-02-14T01:07:11.079Z,78.49
2019-02-14T01:09:57.525Z,78.67
2019-02-14T01:12:25.400Z,77.99
2019-02-14T01:17:26.057Z,77.83
2019-02-14T01:19:53.731Z,77.84
2019-02-14T01:22:21.471Z,77.84
2019-02-14T01:25:07.874Z,78.15
2019-02-14T01:27:35.580Z,78.15
2019-02-14T01:32:49.803Z,78.55
2019-02-14T01:35:41.789Z,78.08
2019-02-14T01:38:05.515Z,78.08
2019-02-14T01:40:53.448Z,78.43
2019-02-14T01:43:21.203Z,78.85
2019-02-14T01:51:21.707Z,78.14
2019-02-14T01:53:28.656Z,78.50
2019-02-14T02:01:18.981Z,78.17
2019-02-14T02:04:05.412Z,78.17
2019-02-14T02:06:52.803Z,78.48
2019-02-14T02:09:20.570Z,78.48
2019-02-14T02:12:07.038Z,78.53
2019-02-14T02:14:34.847Z,78.67
2019-02-14T02:17:21.676Z,78.65
2019-02-14T02:22:42.850Z,78.98
2019-02-14T02:25:10.529Z,78.81
2019-02-14T02:27:38.305Z,79.16
2019-02-14T02:30:25.021Z,78.97
2019-02-14T02:33:11.416Z,78.92
2019-02-14T02:38:14.108Z,79.05
2019-02-14T02:40:42.281Z,78.59
2019-02-14T02:43:29.005Z,78.86
2019-02-14T02:45:56.758Z,78.86
2019-02-14T02:48:43.500Z,78.58
2019-02-14T02:51:44.075Z,78.38
2019-02-14T02:56:37.074Z,78.69
2019-02-14T02:59:26.452Z,78.32
2019-02-14T03:02:12.910Z,78.23
2019-02-14T03:04:59.560Z,78.61
2019-02-14T03:07:27.405Z,78.61
2019-02-14T03:09:55.170Z,79.26
2019-02-14T03:12:41.919Z,79.22
2019-02-14T03:15:28.354Z,78.69
2019-02-14T03:18:15.049Z,78.94
2019-02-14T03:21:01.518Z,79.07
2019-02-14T03:23:29.251Z,79.07
2019-02-14T03:26:15.739Z,78.84
2019-02-14T03:28:43.417Z,78.84
2019-02-14T03:31:30.320Z,78.89
2019-02-14T03:33:57.989Z,78.89
2019-02-14T03:36:44.712Z,79.21
2019-02-14T03:39:31.155Z,78.90
2019-02-14T03:42:17.839Z,79.67
2019-02-14T03:44:48.139Z,79.67
2019-02-14T03:47:15.834Z,79.14
2019-02-14T03:50:02.575Z,79.41
2019-02-14T03:52:48.962Z,79.15
2019-02-14T03:55:35.660Z,78.99
2019-02-14T03:58:22.065Z,79.32
2019-02-14T04:00:49.664Z,79.44
2019-02-14T04:03:17.342Z,79.25
2019-02-14T04:05:46.478Z,79.33
2019-02-14T04:08:14.102Z,79.05
2019-02-14T04:11:00.558Z,79.56
2019-02-14T04:13:46.939Z,79.26
2019-02-14T04:16:14.571Z,79.26
2019-02-14T04:19:01.012Z,79.10
2019-02-14T04:21:47.445Z,79.69
2019-02-14T04:24:33.910Z,79.33
2019-02-14T04:27:01.528Z,79.80
2019-02-14T04:29:29.282Z,79.80
2019-02-14T04:31:56.840Z,79.99
2019-02-14T04:34:24.532Z,79.60
2019-02-14T04:36:53.770Z,79.60
2019-02-14T04:39:40.202Z,80.19
2019-02-14T04:42:07.879Z,80.19
2019-02-14T04:44:54.344Z,80.23
2019-02-14T04:47:22.039Z,80.37
2019-02-14T04:50:10.404Z,80.64
2019-02-14T04:52:38.081Z,80.64
2019-02-14T04:55:24.767Z,80.25
2019-02-14T04:57:52.408Z,80.25
2019-02-14T05:00:20.072Z,80.13
2019-02-14T05:02:47.900Z,80.64
2019-02-14T05:05:34.331Z,80.79
2019-02-14T05:08:02.118Z,80.36
2019-02-14T05:10:48.501Z,80.33
2019-02-14T05:13:16.183Z,80.33
2019-02-14T05:15:45.431Z,80.37
2019-02-14T05:18:31.888Z,80.56
2019-02-14T05:20:59.640Z,80.56
2019-02-14T05:23:27.187Z,80.38
2019-02-14T05:26:13.634Z,80.34
2019-02-14T05:28:41.362Z,80.34
2019-02-14T05:31:27.831Z,80.82
2019-02-14T05:34:14.239Z,80.03
2019-02-14T05:37:00.676Z,80.27
2019-02-14T05:39:47.134Z,79.92
2019-02-14T05:42:33.545Z,80.19
2019-02-14T05:45:01.174Z,80.57
2019-02-14T05:47:47.542Z,80.57
2019-02-14T05:50:15.218Z,80.24
2019-02-14T05:53:01.615Z,80.20
2019-02-14T05:55:48.064Z,79.80
2019-02-14T05:58:34.440Z,79.98
2019-02-14T06:03:55.109Z,79.91
2019-02-14T06:06:22.781Z,79.91
2019-02-14T06:11:57.164Z,80.53
2019-02-14T06:14:46.084Z,80.53
2019-02-14T06:17:32.545Z,80.43
2019-02-14T06:20:00.302Z,80.62
2019-02-14T06:22:48.214Z,80.30
2019-02-14T06:25:15.944Z,80.30
2019-02-14T06:28:02.376Z,80.47
2019-02-14T06:30:30.505Z,80.56
2019-02-14T06:32:58.114Z,80.53
2019-02-14T06:35:44.519Z,80.53
2019-02-14T06:38:24.530Z,80.51
2019-02-14T06:41:00.231Z,80.51
2019-02-14T06:43:46.632Z,79.96
2019-02-14T06:46:33.503Z,80.17
2019-02-14T06:49:01.121Z,80.17
2019-02-14T06:51:28.709Z,80.26
2019-02-14T06:54:15.181Z,80.27
2019-02-14T06:56:42.765Z,80.30
2019-02-14T06:59:29.201Z,80.10
2019-02-14T07:01:56.825Z,80.10
2019-02-14T07:04:24.857Z,80.23
2019-02-14T07:07:18.247Z,80.26
2019-02-14T07:09:40.704Z,80.47
2019-02-14T07:12:27.173Z,80.09
2019-02-14T07:15:13.615Z,79.86
2019-02-14T07:18:00.082Z,80.01
2019-02-14T07:20:46.465Z,80.10
2019-02-14T07:23:33.192Z,80.05
2019-02-14T07:26:19.660Z,79.83
2019-02-14T07:29:06.060Z,79.83
2019-02-14T07:31:33.702Z,79.80
2019-02-14T07:34:20.083Z,79.55
2019-02-14T07:36:47.973Z,79.55
2019-02-14T07:39:18.600Z,79.73
2019-02-14T07:41:46.205Z,79.67
2019-02-14T07:44:35.117Z,79.85
2019-02-14T07:47:21.944Z,79.82
2019-02-14T07:49:52.563Z,79.82
2019-02-14T07:52:25.258Z,79.42
2019-02-14T07:55:04.017Z,79.44
2019-02-14T07:57:21.638Z,79.29
2019-02-14T08:00:08.051Z,79.04
2019-02-14T08:02:35.937Z,79.04
2019-02-14T08:05:03.491Z,78.29
2019-02-14T08:07:43.639Z,78.27
2019-02-14T08:10:02.875Z,77.66
2019-02-14T08:12:49.341Z,77.60
2019-02-14T08:15:35.769Z,77.12
2019-02-14T08:20:42.026Z,76.40
2019-02-14T08:23:09.667Z,76.47
2019-02-14T08:25:37.299Z,76.47
2019-02-14T08:28:05.300Z,75.82
2019-02-14T08:30:32.905Z,75.82
2019-02-14T08:33:00.523Z,75.37
2019-02-14T08:35:47.391Z,74.89
2019-02-14T08:38:33.818Z,74.88
2019-02-14T08:41:20.241Z,74.70
2019-02-14T08:43:47.838Z,73.98
2019-02-14T08:46:15.560Z,73.84
2019-02-14T08:49:01.994Z,73.84
2019-02-14T08:51:32.655Z,74.09
2019-02-14T08:54:20.314Z,74.09
2019-02-14T08:56:47.987Z,74.07
2019-02-14T08:59:34.401Z,73.83
2019-02-14T09:02:21.937Z,73.59
2019-02-14T09:05:08.399Z,73.36
2019-02-14T09:07:54.369Z,73.36
2019-02-14T09:10:05.594Z,73.07
2019-02-14T09:12:52.027Z,72.70
2019-02-14T09:15:19.874Z,72.70
2019-02-14T09:17:47.472Z,72.53
2019-02-14T09:20:15.124Z,72.57
2019-02-14T09:22:52.144Z,72.57
2019-02-14T09:25:19.765Z,72.19
2019-02-14T09:27:47.349Z,71.97
2019-02-14T09:30:18.206Z,71.97
2019-02-14T09:32:45.907Z,71.96
2019-02-14T09:35:13.473Z,71.83
2019-02-14T09:38:03.402Z,72.05
2019-02-14T09:40:29.844Z,72.05
2019-02-14T09:42:57.412Z,71.67
2019-02-14T09:51:37.035Z,70.97
2019-02-14T09:54:23.444Z,70.42
2019-02-14T09:57:13.267Z,70.42
2019-02-14T09:59:40.823Z,70.41
2019-02-14T10:02:27.291Z,70.22
2019-02-14T10:04:56.508Z,70.13
2019-02-14T10:07:55.545Z,69.37
2019-02-14T10:13:36.222Z,68.51
2019-02-14T10:16:22.548Z,65.74
2019-02-14T10:19:21.734Z,65.74
2019-02-14T10:21:38.337Z,61.96
2019-02-14T10:24:25.036Z,61.96
2019-02-14T10:26:52.992Z,57.56
2019-02-14T10:29:39.376Z,57.56
2019-02-14T10:32:09.961Z,55.67
2019-02-14T10:37:10.706Z,54.12
2019-02-14T10:39:39.094Z,53.16
2019-02-14T10:42:25.505Z,52.49
2019-02-14T10:44:53.149Z,51.60
2019-02-14T10:47:39.536Z,50.95
2019-02-14T10:53:05.874Z,49.51
2019-02-14T10:55:52.348Z,49.51
2019-02-14T10:58:20.279Z,49.51
2019-02-14T11:00:59.584Z,49.94
2019-02-14T11:03:36.601Z,49.84
2019-02-14T11:06:23.073Z,50.64
2019-02-14T11:08:50.832Z,52.00
2019-02-14T11:11:18.752Z,53.61
2019-02-14T11:14:05.210Z,53.54
2019-02-14T11:16:51.626Z,53.54
2019-02-14T11:19:19.308Z,52.96
2019-02-14T11:22:05.981Z,51.53
2019-02-14T11:24:33.954Z,50.50
2019-02-14T11:27:01.889Z,49.64
2019-02-14T11:29:29.536Z,50.76
2019-02-14T11:31:59.128Z,51.28
2019-02-14T11:34:41.090Z,51.80
2019-02-14T11:36:56.319Z,52.37
2019-02-14T11:39:26.115Z,53.17
2019-02-14T11:42:12.546Z,52.80
2019-02-14T11:44:40.154Z,52.81
2019-02-14T11:47:08.007Z,52.33
2019-02-14T11:49:54.471Z,52.37
2019-02-14T11:52:41.294Z,50.60
2019-02-14T11:55:27.734Z,52.00
2019-02-14T11:57:55.400Z,52.00
2019-02-14T12:03:12.791Z,56.37
2019-02-14T12:08:57.700Z,59.77
2019-02-14T12:11:33.036Z,58.68
2019-02-14T12:14:07.026Z,59.36
2019-02-14T12:16:34.709Z,60.10
2019-02-14T12:19:02.355Z,60.15
2019-02-14T12:21:48.782Z,60.34
2019-02-14T12:24:35.248Z,60.70
2019-02-14T12:27:21.714Z,61.24
2019-02-14T12:32:37.540Z,62.91
2019-02-14T12:35:05.159Z,64.25
2019-02-14T12:40:39.066Z,65.91
2019-02-14T12:43:09.032Z,67.15
2019-02-14T12:48:24.597Z,67.49
2019-02-14T12:51:11.017Z,67.45
2019-02-14T12:53:38.637Z,66.80
2019-02-14T12:56:06.649Z,66.80
2019-02-14T12:58:53.075Z,64.24
2019-02-14T13:01:41.201Z,63.15
2019-02-14T13:04:09.127Z,63.15
2019-02-14T13:06:36.737Z,61.99
2019-02-14T13:09:05.511Z,61.09
2019-02-14T13:11:33.339Z,60.37
2019-02-14T13:16:48.578Z,59.92
2019-02-14T13:22:13.193Z,60.75
2019-02-14T13:27:47.095Z,60.81
2019-02-14T13:30:14.695Z,60.92
2019-02-14T13:32:42.597Z,60.89
2019-02-14T13:35:10.148Z,61.00
2019-02-14T13:37:39.886Z,61.10
2019-02-14T13:40:25.861Z,61.29
2019-02-14T13:42:53.467Z,61.64
2019-02-14T13:45:39.899Z,62.07
2019-02-14T13:48:09.212Z,62.18
2019-02-14T13:50:37.179Z,61.88
2019-02-14T13:53:04.825Z,61.88
2019-02-14T13:55:32.508Z,62.58
2019-02-14T13:58:00.381Z,62.74
2019-02-14T14:00:27.991Z,62.58
2019-02-14T14:02:55.639Z,62.25
2019-02-14T14:05:42.064Z,61.64
2019-02-14T14:08:09.641Z,60.39
2019-02-14T14:10:56.198Z,59.79
2019-02-14T14:13:27.621Z,59.79
2019-02-14T14:16:27.040Z,59.53
2019-02-14T14:18:43.712Z,59.47
2019-02-14T14:21:30.201Z,59.55
2019-02-14T14:23:57.888Z,59.64
2019-02-14T14:26:44.407Z,59.74
2019-02-14T14:29:12.035Z,59.48
2019-02-14T14:31:42.009Z,59.01
2019-02-14T14:34:09.623Z,58.69
2019-02-14T14:39:11.778Z,58.81
2019-02-14T14:41:39.376Z,59.04
2019-02-14T14:44:25.823Z,59.04
2019-02-14T14:47:12.206Z,58.67
2019-02-14T14:52:13.426Z,56.17
2019-02-14T14:57:14.349Z,56.39
2019-02-14T15:00:01.215Z,56.30
2019-02-14T15:05:15.369Z,56.11
2019-02-14T15:07:43.194Z,55.70
2019-02-14T15:10:12.342Z,55.70
2019-02-14T15:12:40.137Z,55.28
2019-02-14T15:15:21.754Z,55.22
2019-02-14T15:17:39.494Z,55.35
2019-02-14T15:20:25.920Z,55.84
2019-02-14T15:22:53.493Z,55.84
2019-02-14T15:25:40.108Z,57.36
2019-02-14T15:28:07.649Z,57.36
2019-02-14T15:30:37.957Z,58.29
2019-02-14T15:33:05.599Z,59.46
2019-02-14T15:35:33.147Z,60.81
2019-02-14T15:40:35.121Z,63.17
2019-02-14T15:43:02.699Z,64.07
2019-02-14T15:46:01.890Z,64.80
2019-02-14T15:51:25.148Z,66.21
2019-02-14T15:53:52.775Z,67.27
2019-02-14T15:56:39.219Z,67.86
2019-02-14T15:59:06.793Z,67.86
2019-02-14T16:01:34.421Z,68.75
2019-02-14T16:04:20.753Z,68.75
2019-02-14T16:06:50.002Z,68.86
2019-02-14T16:09:17.535Z,69.07
2019-02-14T16:12:04.988Z,69.14
2019-02-14T16:14:34.190Z,69.14
2019-02-14T16:20:05.324Z,68.82
2019-02-14T16:22:04.399Z,68.89
2019-02-14T16:27:32.014Z,69.14
2019-02-14T16:29:58.797Z,69.33
2019-02-14T16:40:55.362Z,69.82
2019-02-14T16:46:15.388Z,70.28
2019-02-14T16:51:48.143Z,69.93
2019-02-14T16:54:15.714Z,69.93
2019-02-14T16:57:02.525Z,70.21
2019-02-14T16:59:30.178Z,70.23
2019-02-14T17:01:58.056Z,70.35
2019-02-14T17:04:25.659Z,70.47
2019-02-14T17:12:01.138Z,71.28
2019-02-14T17:14:28.717Z,71.39
2019-02-14T17:17:28.005Z,71.39
2019-02-14T17:19:44.321Z,71.12
2019-02-14T17:22:12.123Z,71.12
2019-02-14T17:24:39.723Z,71.48
2019-02-14T17:30:12.802Z,70.73
2019-02-14T17:35:28.530Z,69.38
2019-02-14T17:37:56.407Z,69.38
2019-02-14T17:43:16.976Z,70.26
2019-02-14T17:45:46.930Z,70.11
2019-02-14T17:48:33.236Z,70.11
2019-02-14T17:51:02.894Z,70.86
2019-02-14T17:53:49.163Z,71.28
2019-02-14T17:56:35.498Z,71.82
2019-02-14T17:59:22.240Z,71.82
2019-02-14T18:01:49.885Z,71.95
2019-02-14T18:09:40.757Z,72.55
2019-02-14T18:12:08.247Z,72.24
2019-02-14T18:14:37.803Z,72.24
2019-02-14T18:17:05.318Z,72.65
2019-02-14T18:19:33.259Z,72.67
2019-02-14T18:22:01.199Z,72.53
2019-02-14T18:24:31.297Z,72.32
2019-02-14T18:27:02.159Z,72.32
2019-02-14T18:29:30.136Z,72.45
2019-02-14T18:32:02.119Z,72.22
2019-02-14T18:34:27.275Z,72.22
2019-02-14T18:37:03.845Z,71.76
2019-02-14T18:39:31.725Z,71.76
2019-02-14T18:42:02.268Z,71.75
2019-02-14T18:44:32.849Z,71.29
2019-02-14T18:47:00.650Z,71.56
2019-02-14T18:49:28.227Z,71.56
2019-02-14T18:52:01.027Z,71.20
2019-02-14T18:54:29.680Z,70.59
2019-02-14T18:56:57.168Z,71.11
2019-02-14T18:59:42.053Z,71.41
2019-02-14T19:02:09.860Z,71.41
2019-02-14T19:04:37.392Z,71.65
2019-02-14T19:07:07.775Z,71.65
2019-02-14T19:09:35.522Z,72.24
2019-02-14T19:12:03.704Z,72.82
2019-02-14T19:14:34.242Z,73.12
2019-02-14T19:17:02.762Z,73.12
2019-02-14T19:19:33.806Z,73.33
2019-02-14T19:22:01.335Z,73.33
2019-02-14T19:24:38.106Z,72.08
2019-02-14T19:27:10.152Z,72.08
2019-02-14T19:29:36.361Z,72.33
2019-02-14T19:32:07.337Z,72.74
2019-02-14T19:34:39.778Z,72.74
2019-02-14T19:37:10.878Z,72.47
2019-02-14T19:39:38.737Z,72.22
2019-02-14T19:42:06.254Z,72.76
2019-02-14T19:44:33.808Z,72.76
2019-02-14T19:47:20.148Z,72.64
2019-02-14T19:49:50.710Z,72.85
2019-02-14T19:52:18.290Z,72.96
2019-02-14T19:55:04.659Z,72.65
2019-02-14T19:57:51.358Z,72.65
2019-02-14T20:03:26.796Z,72.86
2019-02-14T20:06:15.220Z,72.85
2019-02-14T20:08:51.428Z,72.47
2019-02-14T20:11:37.777Z,72.47
2019-02-14T20:16:40.673Z,73.13
2019-02-14T20:22:14.957Z,72.83
2019-02-14T20:24:42.474Z,72.82
2019-02-14T20:27:28.810Z,72.87
2019-02-14T20:30:07.999Z,72.98
2019-02-14T20:32:44.793Z,73.04
2019-02-14T20:35:31.201Z,73.44
2019-02-14T20:38:33.614Z,72.96
2019-02-14T20:40:49.351Z,73.76
2019-02-14T20:43:35.769Z,73.89
2019-02-14T20:49:10.129Z,73.51
2019-02-14T20:51:38.759Z,73.45
2019-02-14T20:57:02.356Z,73.28
2019-02-14T20:59:33.312Z,73.24
2019-02-14T21:02:00.894Z,73.89
2019-02-14T21:04:31.858Z,73.89
2019-02-14T21:06:59.692Z,73.73
2019-02-14T21:09:29.042Z,74.43
2019-02-14T21:11:56.628Z,74.43
2019-02-14T21:14:24.539Z,74.03
2019-02-14T21:16:52.047Z,74.34
2019-02-14T21:19:31.256Z,74.34
2019-02-14T21:22:17.872Z,73.85
2019-02-14T21:24:36.888Z,73.85
2019-02-14T21:27:04.497Z,74.20
2019-02-14T21:29:33.908Z,74.29
2019-02-14T21:32:03.159Z,74.30
2019-02-14T21:34:31.105Z,74.17
2019-02-14T21:36:59.030Z,74.17
2019-02-14T21:39:26.620Z,74.35
2019-02-14T21:42:17.457Z,74.35
2019-02-14T21:44:23.689Z,74.16
2019-02-14T21:46:51.336Z,74.16
2019-02-14T21:49:22.818Z,73.89
2019-02-14T21:51:50.037Z,73.88
2019-02-14T21:54:20.465Z,74.17
2019-02-14T21:56:50.045Z,74.17
2019-02-14T21:59:17.642Z,73.54
2019-02-14T22:01:50.096Z,73.91
2019-02-14T22:04:17.951Z,73.39
2019-02-14T22:06:45.577Z,73.39
2019-02-14T22:09:13.270Z,73.48
2019-02-14T22:11:41.167Z,73.61
2019-02-14T22:14:08.717Z,73.58
2019-02-14T22:16:36.278Z,73.46
2019-02-14T22:19:04.224Z,73.91
2019-02-14T22:21:31.895Z,73.98
2019-02-14T22:23:59.445Z,73.98
2019-02-14T22:26:27.319Z,73.82
2019-02-14T22:28:55.181Z,73.73
2019-02-14T22:34:09.472Z,73.52
2019-02-14T22:36:40.160Z,73.37
2019-02-14T22:39:26.587Z,72.93
2019-02-14T22:41:54.262Z,72.70
2019-02-14T22:44:22.163Z,72.70
2019-02-14T22:46:49.939Z,72.83
2019-02-14T22:49:17.541Z,72.83
2019-02-14T22:51:45.081Z,73.18
2019-02-14T22:54:31.449Z,73.62
2019-02-14T22:56:59.029Z,73.62
2019-02-14T22:59:45.306Z,73.37
2019-02-14T23:02:12.963Z,73.37
2019-02-14T23:04:40.846Z,73.25
2019-02-14T23:07:08.401Z,73.18
2019-02-14T23:09:38.770Z,73.09
2019-02-14T23:12:06.542Z,72.93
2019-02-14T23:17:45.103Z,73.15
2019-02-14T23:20:31.495Z,72.71
2019-02-14T23:23:18.089Z,72.71
2019-02-14T23:25:46.154Z,73.40
2019-02-14T23:28:13.821Z,73.40
2019-02-14T23:31:00.193Z,73.00
2019-02-14T23:33:27.791Z,73.00
2019-02-14T23:36:14.157Z,73.10
2019-02-14T23:41:36.620Z,73.23
2019-02-14T23:47:28.173Z,74.07
2019-02-14T23:49:57.390Z,74.23
2019-02-14T23:52:43.752Z,74.23
2019-02-14T23:55:30.139Z,73.79
2019-02-14T23:58:16.873Z,73.36
